sensor_id;sensor_type;location;lat;lon;timestamp;P1;durP1;ratioP1;P2;durP2;ratioP2
58372;SDS011;44177;43.356;27.672;2023-05-10T00:02:07;5.18;;;3.83;;
58372;SDS011;44177;43.356;27.672;2023-05-10T00:04:32;9.10;;;4.10;;
58372;SDS011;44177;43.356;27.672;2023-05-10T00:06:58;6.93;;;4.05;;
58372;SDS011;44177;43.356;27.672;2023-05-10T00:09:23;6.05;;;3.85;;
58372;SDS011;44177;43.356;27.672;2023-05-10T00:11:49;7.45;;;4.47;;
58372;SDS011;44177;43.356;27.672;2023-05-10T00:14:15;5.82;;;4.55;;
58372;SDS011;44177;43.356;27.672;2023-05-10T00:16:40;11.35;;;4.45;;
58372;SDS011;44177;43.356;27.672;2023-05-10T00:19:06;8.25;;;4.50;;
58372;SDS011;44177;43.356;27.672;2023-05-10T00:21:31;9.77;;;4.80;;
58372;SDS011;44177;43.356;27.672;2023-05-10T00:23:58;5.72;;;4.20;;
58372;SDS011;44177;43.356;27.672;2023-05-10T00:26:24;7.72;;;4.90;;
58372;SDS011;44177;43.356;27.672;2023-05-10T00:28:49;9.55;;;4.85;;
58372;SDS011;44177;43.356;27.672;2023-05-10T00:31:15;7.22;;;4.30;;
58372;SDS011;44177;43.356;27.672;2023-05-10T00:33:40;4.47;;;3.50;;
58372;SDS011;44177;43.356;27.672;2023-05-10T00:36:06;5.10;;;3.63;;
58372;SDS011;44177;43.356;27.672;2023-05-10T00:38:32;6.05;;;4.13;;
58372;SDS011;44177;43.356;27.672;2023-05-10T00:40:58;6.53;;;4.18;;
58372;SDS011;44177;43.356;27.672;2023-05-10T00:43:24;8.48;;;3.78;;
58372;SDS011;44177;43.356;27.672;2023-05-10T00:45:49;5.45;;;3.95;;
58372;SDS011;44177;43.356;27.672;2023-05-10T00:48:15;5.93;;;3.60;;
58372;SDS011;44177;43.356;27.672;2023-05-10T00:50:40;6.70;;;4.25;;
58372;SDS011;44177;43.356;27.672;2023-05-10T00:53:06;7.20;;;4.72;;
58372;SDS011;44177;43.356;27.672;2023-05-10T00:55:32;5.55;;;4.25;;
58372;SDS011;44177;43.356;27.672;2023-05-10T00:57:58;7.90;;;4.38;;
58372;SDS011;44177;43.356;27.672;2023-05-10T01:00:23;8.55;;;4.63;;
58372;SDS011;44177;43.356;27.672;2023-05-10T01:02:50;6.47;;;4.30;;
58372;SDS011;44177;43.356;27.672;2023-05-10T01:05:17;7.05;;;4.40;;
58372;SDS011;44177;43.356;27.672;2023-05-10T01:07:43;8.20;;;4.57;;
58372;SDS011;44177;43.356;27.672;2023-05-10T01:10:08;10.20;;;5.25;;
58372;SDS011;44177;43.356;27.672;2023-05-10T01:12:35;7.95;;;5.05;;
58372;SDS011;44177;43.356;27.672;2023-05-10T01:15:05;7.05;;;4.68;;
58372;SDS011;44177;43.356;27.672;2023-05-10T01:17:33;7.80;;;4.53;;
58372;SDS011;44177;43.356;27.672;2023-05-10T01:20:00;5.45;;;4.35;;
58372;SDS011;44177;43.356;27.672;2023-05-10T01:28:13;10.05;;;5.90;;
58372;SDS011;44177;43.356;27.672;2023-05-10T01:31:37;6.88;;;4.55;;
58372;SDS011;44177;43.356;27.672;2023-05-10T01:33:59;8.88;;;5.15;;
58372;SDS011;44177;43.356;27.672;2023-05-10T01:39:17;6.32;;;4.38;;
58372;SDS011;44177;43.356;27.672;2023-05-10T01:41:52;8.68;;;5.13;;
58372;SDS011;44177;43.356;27.672;2023-05-10T01:44:39;8.02;;;5.13;;
58372;SDS011;44177;43.356;27.672;2023-05-10T01:50:29;8.85;;;6.10;;
58372;SDS011;44177;43.356;27.672;2023-05-10T01:52:57;9.30;;;6.00;;
58372;SDS011;44177;43.356;27.672;2023-05-10T01:55:26;9.25;;;5.82;;
58372;SDS011;44177;43.356;27.672;2023-05-10T01:58:02;9.80;;;5.05;;
58372;SDS011;44177;43.356;27.672;2023-05-10T02:00:34;7.10;;;4.93;;
58372;SDS011;44177;43.356;27.672;2023-05-10T02:03:01;9.38;;;5.13;;
58372;SDS011;44177;43.356;27.672;2023-05-10T02:05:31;6.65;;;4.28;;
58372;SDS011;44177;43.356;27.672;2023-05-10T02:07:58;8.15;;;5.18;;
58372;SDS011;44177;43.356;27.672;2023-05-10T02:10:27;8.75;;;4.80;;
58372;SDS011;44177;43.356;27.672;2023-05-10T02:12:54;8.50;;;4.90;;
58372;SDS011;44177;43.356;27.672;2023-05-10T02:15:23;9.52;;;4.82;;
58372;SDS011;44177;43.356;27.672;2023-05-10T02:17:51;8.30;;;4.40;;
58372;SDS011;44177;43.356;27.672;2023-05-10T02:20:20;7.28;;;4.80;;
58372;SDS011;44177;43.356;27.672;2023-05-10T02:22:47;8.05;;;4.90;;
58372;SDS011;44177;43.356;27.672;2023-05-10T02:25:14;6.30;;;4.80;;
58372;SDS011;44177;43.356;27.672;2023-05-10T02:27:41;8.38;;;5.35;;
58372;SDS011;44177;43.356;27.672;2023-05-10T02:30:08;7.57;;;4.93;;
58372;SDS011;44177;43.356;27.672;2023-05-10T02:32:36;8.57;;;5.50;;
58372;SDS011;44177;43.356;27.672;2023-05-10T02:35:02;8.77;;;5.18;;
58372;SDS011;44177;43.356;27.672;2023-05-10T02:37:29;6.40;;;4.88;;
58372;SDS011;44177;43.356;27.672;2023-05-10T02:39:55;10.05;;;5.43;;
58372;SDS011;44177;43.356;27.672;2023-05-10T02:42:23;7.82;;;5.18;;
58372;SDS011;44177;43.356;27.672;2023-05-10T02:44:52;8.65;;;5.90;;
58372;SDS011;44177;43.356;27.672;2023-05-10T02:47:21;9.32;;;5.88;;
58372;SDS011;44177;43.356;27.672;2023-05-10T02:49:47;7.80;;;5.55;;
58372;SDS011;44177;43.356;27.672;2023-05-10T02:52:14;7.63;;;5.45;;
58372;SDS011;44177;43.356;27.672;2023-05-10T02:54:45;9.48;;;5.63;;
58372;SDS011;44177;43.356;27.672;2023-05-10T02:57:15;10.57;;;5.28;;
58372;SDS011;44177;43.356;27.672;2023-05-10T02:59:44;17.48;;;6.47;;
58372;SDS011;44177;43.356;27.672;2023-05-10T03:02:10;15.68;;;7.22;;
58372;SDS011;44177;43.356;27.672;2023-05-10T03:04:37;30.08;;;7.00;;
58372;SDS011;44177;43.356;27.672;2023-05-10T03:07:03;29.83;;;6.70;;
58372;SDS011;44177;43.356;27.672;2023-05-10T03:09:29;24.13;;;7.10;;
58372;SDS011;44177;43.356;27.672;2023-05-10T03:17:22;21.02;;;7.78;;
58372;SDS011;44177;43.356;27.672;2023-05-10T03:19:53;23.08;;;7.57;;
58372;SDS011;44177;43.356;27.672;2023-05-10T03:22:21;27.40;;;7.78;;
58372;SDS011;44177;43.356;27.672;2023-05-10T03:24:51;37.67;;;7.90;;
58372;SDS011;44177;43.356;27.672;2023-05-10T03:27:20;32.08;;;7.57;;
58372;SDS011;44177;43.356;27.672;2023-05-10T03:29:47;28.63;;;6.72;;
58372;SDS011;44177;43.356;27.672;2023-05-10T03:32:13;18.90;;;7.53;;
58372;SDS011;44177;43.356;27.672;2023-05-10T03:34:42;18.20;;;7.20;;
58372;SDS011;44177;43.356;27.672;2023-05-10T03:37:10;30.42;;;8.55;;
58372;SDS011;44177;43.356;27.672;2023-05-10T03:39:36;38.67;;;10.27;;
58372;SDS011;44177;43.356;27.672;2023-05-10T03:42:01;43.42;;;7.88;;
58372;SDS011;44177;43.356;27.672;2023-05-10T03:44:27;80.05;;;8.23;;
58372;SDS011;44177;43.356;27.672;2023-05-10T03:46:53;48.88;;;8.10;;
58372;SDS011;44177;43.356;27.672;2023-05-10T03:49:18;58.35;;;9.40;;
58372;SDS011;44177;43.356;27.672;2023-05-10T03:51:44;57.08;;;8.60;;
58372;SDS011;44177;43.356;27.672;2023-05-10T03:54:09;38.63;;;8.20;;
58372;SDS011;44177;43.356;27.672;2023-05-10T03:56:34;54.55;;;7.80;;
58372;SDS011;44177;43.356;27.672;2023-05-10T03:59:00;41.10;;;8.20;;
58372;SDS011;44177;43.356;27.672;2023-05-10T04:01:26;48.65;;;8.90;;
58372;SDS011;44177;43.356;27.672;2023-05-10T04:03:51;42.95;;;8.60;;
58372;SDS011;44177;43.356;27.672;2023-05-10T04:06:16;56.50;;;8.95;;
58372;SDS011;44177;43.356;27.672;2023-05-10T04:08:42;60.80;;;8.52;;
58372;SDS011;44177;43.356;27.672;2023-05-10T04:11:08;65.95;;;8.80;;
58372;SDS011;44177;43.356;27.672;2023-05-10T04:13:35;43.90;;;8.20;;
58372;SDS011;44177;43.356;27.672;2023-05-10T04:16:00;53.63;;;7.22;;
58372;SDS011;44177;43.356;27.672;2023-05-10T04:18:26;81.45;;;8.02;;
58372;SDS011;44177;43.356;27.672;2023-05-10T04:20:51;40.88;;;6.75;;
58372;SDS011;44177;43.356;27.672;2023-05-10T04:23:17;28.05;;;6.55;;
58372;SDS011;44177;43.356;27.672;2023-05-10T04:25:42;19.00;;;6.30;;
58372;SDS011;44177;43.356;27.672;2023-05-10T04:28:08;37.90;;;6.68;;
58372;SDS011;44177;43.356;27.672;2023-05-10T04:30:34;39.20;;;8.93;;
58372;SDS011;44177;43.356;27.672;2023-05-10T04:32:59;40.67;;;9.65;;
58372;SDS011;44177;43.356;27.672;2023-05-10T04:35:26;45.55;;;10.15;;
58372;SDS011;44177;43.356;27.672;2023-05-10T04:37:53;44.90;;;13.27;;
58372;SDS011;44177;43.356;27.672;2023-05-10T04:40:18;62.13;;;15.13;;
58372;SDS011;44177;43.356;27.672;2023-05-10T04:42:44;66.63;;;13.23;;
58372;SDS011;44177;43.356;27.672;2023-05-10T04:45:10;62.60;;;15.48;;
58372;SDS011;44177;43.356;27.672;2023-05-10T04:47:36;70.53;;;14.70;;
58372;SDS011;44177;43.356;27.672;2023-05-10T04:50:02;33.00;;;8.20;;
58372;SDS011;44177;43.356;27.672;2023-05-10T04:52:28;31.83;;;7.93;;
58372;SDS011;44177;43.356;27.672;2023-05-10T04:54:53;35.50;;;7.30;;
58372;SDS011;44177;43.356;27.672;2023-05-10T04:57:19;24.83;;;6.80;;
58372;SDS011;44177;43.356;27.672;2023-05-10T04:59:45;9.70;;;5.78;;
58372;SDS011;44177;43.356;27.672;2023-05-10T05:02:10;9.75;;;5.60;;
58372;SDS011;44177;43.356;27.672;2023-05-10T05:04:36;11.85;;;5.85;;
58372;SDS011;44177;43.356;27.672;2023-05-10T05:07:01;7.97;;;6.28;;
58372;SDS011;44177;43.356;27.672;2023-05-10T05:09:27;9.20;;;6.57;;
58372;SDS011;44177;43.356;27.672;2023-05-10T05:11:52;8.30;;;6.72;;
58372;SDS011;44177;43.356;27.672;2023-05-10T05:14:18;8.25;;;6.60;;
58372;SDS011;44177;43.356;27.672;2023-05-10T05:16:45;9.18;;;6.78;;
58372;SDS011;44177;43.356;27.672;2023-05-10T05:19:11;9.68;;;6.75;;
58372;SDS011;44177;43.356;27.672;2023-05-10T05:21:36;9.55;;;7.00;;
58372;SDS011;44177;43.356;27.672;2023-05-10T05:24:02;8.90;;;7.00;;
58372;SDS011;44177;43.356;27.672;2023-05-10T05:26:28;8.32;;;6.85;;
58372;SDS011;44177;43.356;27.672;2023-05-10T05:28:53;7.72;;;6.82;;
58372;SDS011;44177;43.356;27.672;2023-05-10T05:31:19;7.70;;;6.20;;
58372;SDS011;44177;43.356;27.672;2023-05-10T05:33:45;8.57;;;6.70;;
58372;SDS011;44177;43.356;27.672;2023-05-10T05:36:11;8.23;;;6.55;;
58372;SDS011;44177;43.356;27.672;2023-05-10T05:38:36;8.10;;;6.28;;
58372;SDS011;44177;43.356;27.672;2023-05-10T05:41:02;10.07;;;6.45;;
58372;SDS011;44177;43.356;27.672;2023-05-10T05:43:28;10.18;;;6.85;;
58372;SDS011;44177;43.356;27.672;2023-05-10T05:45:53;13.70;;;6.60;;
58372;SDS011;44177;43.356;27.672;2023-05-10T05:48:19;7.60;;;6.40;;
58372;SDS011;44177;43.356;27.672;2023-05-10T05:50:45;8.48;;;5.72;;
58372;SDS011;44177;43.356;27.672;2023-05-10T05:53:11;6.72;;;5.43;;
58372;SDS011;44177;43.356;27.672;2023-05-10T05:55:37;8.27;;;5.70;;
58372;SDS011;44177;43.356;27.672;2023-05-10T05:58:02;7.63;;;6.25;;
58372;SDS011;44177;43.356;27.672;2023-05-10T06:00:28;7.35;;;5.25;;
58372;SDS011;44177;43.356;27.672;2023-05-10T06:02:53;6.80;;;4.97;;
58372;SDS011;44177;43.356;27.672;2023-05-10T06:05:19;7.18;;;5.07;;
58372;SDS011;44177;43.356;27.672;2023-05-10T06:07:45;6.05;;;4.40;;
58372;SDS011;44177;43.356;27.672;2023-05-10T06:10:11;5.50;;;4.85;;
58372;SDS011;44177;43.356;27.672;2023-05-10T06:12:36;4.50;;;3.92;;
58372;SDS011;44177;43.356;27.672;2023-05-10T06:15:02;4.85;;;4.38;;
58372;SDS011;44177;43.356;27.672;2023-05-10T06:17:28;5.53;;;4.10;;
58372;SDS011;44177;43.356;27.672;2023-05-10T06:19:54;7.95;;;4.10;;
58372;SDS011;44177;43.356;27.672;2023-05-10T06:22:20;6.57;;;3.78;;
58372;SDS011;44177;43.356;27.672;2023-05-10T06:24:47;16.90;;;4.35;;
58372;SDS011;44177;43.356;27.672;2023-05-10T06:27:13;9.75;;;4.00;;
58372;SDS011;44177;43.356;27.672;2023-05-10T06:29:39;4.80;;;3.40;;
58372;SDS011;44177;43.356;27.672;2023-05-10T06:32:04;7.35;;;3.90;;
58372;SDS011;44177;43.356;27.672;2023-05-10T06:34:30;3.92;;;3.60;;
58372;SDS011;44177;43.356;27.672;2023-05-10T06:36:56;6.85;;;3.80;;
58372;SDS011;44177;43.356;27.672;2023-05-10T06:39:22;3.65;;;3.05;;
58372;SDS011;44177;43.356;27.672;2023-05-10T06:41:47;4.82;;;3.03;;
58372;SDS011;44177;43.356;27.672;2023-05-10T06:44:13;4.85;;;3.70;;
58372;SDS011;44177;43.356;27.672;2023-05-10T06:46:38;4.22;;;3.83;;
58372;SDS011;44177;43.356;27.672;2023-05-10T06:49:03;4.38;;;2.63;;
58372;SDS011;44177;43.356;27.672;2023-05-10T06:51:29;3.15;;;2.85;;
58372;SDS011;44177;43.356;27.672;2023-05-10T06:53:55;4.47;;;2.72;;
58372;SDS011;44177;43.356;27.672;2023-05-10T06:56:21;4.35;;;2.72;;
58372;SDS011;44177;43.356;27.672;2023-05-10T06:58:47;4.32;;;3.08;;
58372;SDS011;44177;43.356;27.672;2023-05-10T07:01:13;4.50;;;2.70;;
58372;SDS011;44177;43.356;27.672;2023-05-10T07:03:38;3.92;;;3.00;;
58372;SDS011;44177;43.356;27.672;2023-05-10T07:06:04;2.95;;;2.65;;
58372;SDS011;44177;43.356;27.672;2023-05-10T07:08:30;6.60;;;3.30;;
58372;SDS011;44177;43.356;27.672;2023-05-10T07:11:03;4.10;;;3.08;;
58372;SDS011;44177;43.356;27.672;2023-05-10T07:13:30;5.20;;;3.70;;
58372;SDS011;44177;43.356;27.672;2023-05-10T07:15:57;5.75;;;3.75;;
58372;SDS011;44177;43.356;27.672;2023-05-10T07:18:23;4.25;;;3.30;;
58372;SDS011;44177;43.356;27.672;2023-05-10T07:20:49;4.45;;;3.42;;
58372;SDS011;44177;43.356;27.672;2023-05-10T07:23:14;4.95;;;2.97;;
58372;SDS011;44177;43.356;27.672;2023-05-10T07:25:40;4.07;;;3.30;;
58372;SDS011;44177;43.356;27.672;2023-05-10T07:28:05;5.75;;;3.60;;
58372;SDS011;44177;43.356;27.672;2023-05-10T07:30:31;3.88;;;2.67;;
58372;SDS011;44177;43.356;27.672;2023-05-10T07:32:56;6.18;;;3.35;;
58372;SDS011;44177;43.356;27.672;2023-05-10T07:35:22;3.97;;;2.95;;
58372;SDS011;44177;43.356;27.672;2023-05-10T07:37:47;3.67;;;3.03;;
58372;SDS011;44177;43.356;27.672;2023-05-10T07:40:13;6.35;;;3.22;;
58372;SDS011;44177;43.356;27.672;2023-05-10T07:42:38;7.35;;;3.90;;
58372;SDS011;44177;43.356;27.672;2023-05-10T07:45:04;6.30;;;3.35;;
58372;SDS011;44177;43.356;27.672;2023-05-10T07:47:30;4.00;;;3.17;;
58372;SDS011;44177;43.356;27.672;2023-05-10T07:49:55;4.22;;;2.83;;
58372;SDS011;44177;43.356;27.672;2023-05-10T07:52:20;5.15;;;3.40;;
58372;SDS011;44177;43.356;27.672;2023-05-10T07:54:46;3.88;;;2.55;;
58372;SDS011;44177;43.356;27.672;2023-05-10T07:57:11;4.53;;;3.28;;
58372;SDS011;44177;43.356;27.672;2023-05-10T07:59:39;3.60;;;2.88;;
58372;SDS011;44177;43.356;27.672;2023-05-10T08:02:05;5.00;;;3.00;;
58372;SDS011;44177;43.356;27.672;2023-05-10T08:04:31;4.47;;;3.00;;
58372;SDS011;44177;43.356;27.672;2023-05-10T08:06:56;3.75;;;2.75;;
58372;SDS011;44177;43.356;27.672;2023-05-10T08:09:22;3.20;;;2.63;;
58372;SDS011;44177;43.356;27.672;2023-05-10T08:11:49;4.93;;;2.92;;
58372;SDS011;44177;43.356;27.672;2023-05-10T08:14:15;5.53;;;3.08;;
58372;SDS011;44177;43.356;27.672;2023-05-10T08:16:41;3.53;;;2.78;;
58372;SDS011;44177;43.356;27.672;2023-05-10T08:19:06;4.55;;;2.80;;
58372;SDS011;44177;43.356;27.672;2023-05-10T08:21:32;3.10;;;2.80;;
58372;SDS011;44177;43.356;27.672;2023-05-10T08:23:57;4.28;;;2.75;;
58372;SDS011;44177;43.356;27.672;2023-05-10T08:26:23;4.28;;;2.70;;
58372;SDS011;44177;43.356;27.672;2023-05-10T08:28:48;4.22;;;2.58;;
58372;SDS011;44177;43.356;27.672;2023-05-10T08:31:14;6.15;;;2.92;;
58372;SDS011;44177;43.356;27.672;2023-05-10T08:33:40;3.28;;;2.63;;
58372;SDS011;44177;43.356;27.672;2023-05-10T08:36:05;4.13;;;3.17;;
58372;SDS011;44177;43.356;27.672;2023-05-10T08:38:31;2.80;;;2.50;;
58372;SDS011;44177;43.356;27.672;2023-05-10T08:40:57;3.65;;;2.80;;
58372;SDS011;44177;43.356;27.672;2023-05-10T08:43:24;2.80;;;2.53;;
58372;SDS011;44177;43.356;27.672;2023-05-10T08:45:54;3.83;;;2.40;;
58372;SDS011;44177;43.356;27.672;2023-05-10T08:48:21;4.55;;;2.58;;
58372;SDS011;44177;43.356;27.672;2023-05-10T08:50:49;3.83;;;2.70;;
58372;SDS011;44177;43.356;27.672;2023-05-10T08:53:19;3.90;;;2.80;;
58372;SDS011;44177;43.356;27.672;2023-05-10T08:55:47;2.63;;;2.10;;
58372;SDS011;44177;43.356;27.672;2023-05-10T08:58:13;3.55;;;2.42;;
58372;SDS011;44177;43.356;27.672;2023-05-10T09:00:39;4.78;;;2.88;;
58372;SDS011;44177;43.356;27.672;2023-05-10T09:03:05;4.60;;;2.42;;
58372;SDS011;44177;43.356;27.672;2023-05-10T09:05:31;3.25;;;2.53;;
58372;SDS011;44177;43.356;27.672;2023-05-10T09:07:57;6.05;;;2.50;;
58372;SDS011;44177;43.356;27.672;2023-05-10T09:10:23;3.10;;;2.42;;
58372;SDS011;44177;43.356;27.672;2023-05-10T09:12:52;2.92;;;2.15;;
58372;SDS011;44177;43.356;27.672;2023-05-10T09:15:19;4.18;;;2.80;;
58372;SDS011;44177;43.356;27.672;2023-05-10T09:17:45;4.57;;;2.75;;
58372;SDS011;44177;43.356;27.672;2023-05-10T09:20:11;3.55;;;2.53;;
58372;SDS011;44177;43.356;27.672;2023-05-10T09:22:37;5.28;;;2.50;;
58372;SDS011;44177;43.356;27.672;2023-05-10T09:25:03;3.78;;;2.20;;
58372;SDS011;44177;43.356;27.672;2023-05-10T09:27:29;4.95;;;2.22;;
58372;SDS011;44177;43.356;27.672;2023-05-10T09:29:55;2.70;;;2.00;;
58372;SDS011;44177;43.356;27.672;2023-05-10T09:32:20;3.95;;;2.20;;
58372;SDS011;44177;43.356;27.672;2023-05-10T09:34:46;3.35;;;2.45;;
58372;SDS011;44177;43.356;27.672;2023-05-10T09:37:14;3.35;;;2.17;;
58372;SDS011;44177;43.356;27.672;2023-05-10T09:39:40;5.55;;;2.70;;
58372;SDS011;44177;43.356;27.672;2023-05-10T09:42:07;2.85;;;2.42;;
58372;SDS011;44177;43.356;27.672;2023-05-10T09:44:34;4.18;;;2.47;;
58372;SDS011;44177;43.356;27.672;2023-05-10T09:47:00;3.55;;;2.30;;
58372;SDS011;44177;43.356;27.672;2023-05-10T09:49:27;4.75;;;2.75;;
58372;SDS011;44177;43.356;27.672;2023-05-10T09:51:59;5.05;;;2.70;;
58372;SDS011;44177;43.356;27.672;2023-05-10T09:54:32;2.97;;;2.63;;
58372;SDS011;44177;43.356;27.672;2023-05-10T09:56:58;2.90;;;2.55;;
58372;SDS011;44177;43.356;27.672;2023-05-10T09:59:25;4.75;;;2.50;;
58372;SDS011;44177;43.356;27.672;2023-05-10T10:01:55;3.10;;;2.80;;
58372;SDS011;44177;43.356;27.672;2023-05-10T10:04:22;3.17;;;2.63;;
58372;SDS011;44177;43.356;27.672;2023-05-10T10:06:57;4.90;;;2.95;;
58372;SDS011;44177;43.356;27.672;2023-05-10T10:09:27;3.03;;;2.22;;
58372;SDS011;44177;43.356;27.672;2023-05-10T10:11:53;3.72;;;2.38;;
58372;SDS011;44177;43.356;27.672;2023-05-10T10:14:19;4.45;;;2.40;;
58372;SDS011;44177;43.356;27.672;2023-05-10T10:16:46;3.08;;;2.40;;
58372;SDS011;44177;43.356;27.672;2023-05-10T10:19:12;4.65;;;2.28;;
58372;SDS011;44177;43.356;27.672;2023-05-10T10:21:38;2.63;;;2.42;;
58372;SDS011;44177;43.356;27.672;2023-05-10T10:24:03;2.65;;;2.15;;
58372;SDS011;44177;43.356;27.672;2023-05-10T10:26:30;2.95;;;2.10;;
58372;SDS011;44177;43.356;27.672;2023-05-10T10:31:39;3.42;;;2.47;;
58372;SDS011;44177;43.356;27.672;2023-05-10T10:34:08;3.58;;;2.50;;
58372;SDS011;44177;43.356;27.672;2023-05-10T10:36:43;4.72;;;2.50;;
58372;SDS011;44177;43.356;27.672;2023-05-10T10:39:10;5.20;;;2.53;;
58372;SDS011;44177;43.356;27.672;2023-05-10T10:41:40;6.82;;;2.58;;
58372;SDS011;44177;43.356;27.672;2023-05-10T10:47:06;5.40;;;2.67;;
58372;SDS011;44177;43.356;27.672;2023-05-10T10:52:37;4.35;;;2.60;;
58372;SDS011;44177;43.356;27.672;2023-05-10T10:55:05;4.85;;;2.38;;
58372;SDS011;44177;43.356;27.672;2023-05-10T11:08:00;4.57;;;2.40;;
58372;SDS011;44177;43.356;27.672;2023-05-10T11:10:31;5.32;;;2.45;;
58372;SDS011;44177;43.356;27.672;2023-05-10T11:13:07;2.75;;;2.33;;
58372;SDS011;44177;43.356;27.672;2023-05-10T11:15:34;3.85;;;2.40;;
58372;SDS011;44177;43.356;27.672;2023-05-10T11:23:21;2.83;;;2.20;;
58372;SDS011;44177;43.356;27.672;2023-05-10T11:25:47;4.78;;;2.42;;
58372;SDS011;44177;43.356;27.672;2023-05-10T11:28:16;5.15;;;2.63;;
58372;SDS011;44177;43.356;27.672;2023-05-10T11:30:43;4.30;;;2.60;;
58372;SDS011;44177;43.356;27.672;2023-05-10T11:33:14;5.20;;;2.75;;
58372;SDS011;44177;43.356;27.672;2023-05-10T11:35:40;4.68;;;2.58;;
58372;SDS011;44177;43.356;27.672;2023-05-10T11:38:07;4.50;;;2.42;;
58372;SDS011;44177;43.356;27.672;2023-05-10T11:40:33;4.13;;;2.47;;
58372;SDS011;44177;43.356;27.672;2023-05-10T11:42:59;6.70;;;2.80;;
58372;SDS011;44177;43.356;27.672;2023-05-10T11:45:24;4.20;;;2.33;;
58372;SDS011;44177;43.356;27.672;2023-05-10T11:47:50;4.22;;;1.98;;
58372;SDS011;44177;43.356;27.672;2023-05-10T11:50:16;2.55;;;2.00;;
58372;SDS011;44177;43.356;27.672;2023-05-10T11:52:42;5.18;;;2.60;;
58372;SDS011;44177;43.356;27.672;2023-05-10T11:55:08;3.83;;;2.13;;
58372;SDS011;44177;43.356;27.672;2023-05-10T11:57:34;3.28;;;2.00;;
58372;SDS011;44177;43.356;27.672;2023-05-10T12:00:00;5.50;;;2.67;;
58372;SDS011;44177;43.356;27.672;2023-05-10T12:02:28;2.83;;;2.40;;
58372;SDS011;44177;43.356;27.672;2023-05-10T12:04:55;4.78;;;2.53;;
58372;SDS011;44177;43.356;27.672;2023-05-10T12:07:21;3.85;;;1.90;;
58372;SDS011;44177;43.356;27.672;2023-05-10T12:12:38;4.30;;;2.35;;
58372;SDS011;44177;43.356;27.672;2023-05-10T12:15:17;2.63;;;2.25;;
58372;SDS011;44177;43.356;27.672;2023-05-10T12:17:44;4.78;;;2.25;;
58372;SDS011;44177;43.356;27.672;2023-05-10T12:20:13;2.78;;;2.20;;
58372;SDS011;44177;43.356;27.672;2023-05-10T12:22:40;7.10;;;2.38;;
58372;SDS011;44177;43.356;27.672;2023-05-10T12:25:05;6.00;;;2.40;;
58372;SDS011;44177;43.356;27.672;2023-05-10T12:27:33;3.53;;;2.65;;
58372;SDS011;44177;43.356;27.672;2023-05-10T12:29:59;3.50;;;2.40;;
58372;SDS011;44177;43.356;27.672;2023-05-10T12:32:45;4.20;;;2.33;;
58372;SDS011;44177;43.356;27.672;2023-05-10T12:35:10;4.25;;;2.22;;
58372;SDS011;44177;43.356;27.672;2023-05-10T12:37:36;3.42;;;2.67;;
58372;SDS011;44177;43.356;27.672;2023-05-10T12:40:08;3.42;;;2.22;;
58372;SDS011;44177;43.356;27.672;2023-05-10T12:42:36;2.95;;;2.50;;
58372;SDS011;44177;43.356;27.672;2023-05-10T12:45:03;3.97;;;2.05;;
58372;SDS011;44177;43.356;27.672;2023-05-10T12:47:30;2.92;;;2.25;;
58372;SDS011;44177;43.356;27.672;2023-05-10T12:49:56;6.43;;;2.00;;
58372;SDS011;44177;43.356;27.672;2023-05-10T12:52:22;4.10;;;2.30;;
58372;SDS011;44177;43.356;27.672;2023-05-10T12:54:48;2.42;;;2.08;;
58372;SDS011;44177;43.356;27.672;2023-05-10T12:57:14;4.07;;;2.40;;
58372;SDS011;44177;43.356;27.672;2023-05-10T12:59:39;2.78;;;2.58;;
58372;SDS011;44177;43.356;27.672;2023-05-10T13:02:05;4.50;;;2.28;;
58372;SDS011;44177;43.356;27.672;2023-05-10T13:04:31;2.72;;;2.33;;
58372;SDS011;44177;43.356;27.672;2023-05-10T13:06:57;4.03;;;2.15;;
58372;SDS011;44177;43.356;27.672;2023-05-10T13:09:26;4.43;;;2.10;;
58372;SDS011;44177;43.356;27.672;2023-05-10T13:11:54;4.97;;;2.45;;
58372;SDS011;44177;43.356;27.672;2023-05-10T13:14:20;4.03;;;2.22;;
58372;SDS011;44177;43.356;27.672;2023-05-10T13:16:46;3.78;;;2.20;;
58372;SDS011;44177;43.356;27.672;2023-05-10T13:19:12;2.85;;;2.22;;
58372;SDS011;44177;43.356;27.672;2023-05-10T13:21:38;2.60;;;2.40;;
58372;SDS011;44177;43.356;27.672;2023-05-10T13:24:06;2.60;;;2.40;;
58372;SDS011;44177;43.356;27.672;2023-05-10T13:26:31;8.40;;;2.55;;
58372;SDS011;44177;43.356;27.672;2023-05-10T13:28:57;2.38;;;2.17;;
58372;SDS011;44177;43.356;27.672;2023-05-10T13:31:22;4.88;;;2.63;;
58372;SDS011;44177;43.356;27.672;2023-05-10T13:33:48;4.85;;;2.22;;
58372;SDS011;44177;43.356;27.672;2023-05-10T13:36:13;2.97;;;2.17;;
58372;SDS011;44177;43.356;27.672;2023-05-10T13:38:39;3.67;;;2.50;;
58372;SDS011;44177;43.356;27.672;2023-05-10T13:41:05;2.83;;;2.17;;
58372;SDS011;44177;43.356;27.672;2023-05-10T13:43:30;6.53;;;1.90;;
58372;SDS011;44177;43.356;27.672;2023-05-10T13:45:55;3.90;;;2.67;;
58372;SDS011;44177;43.356;27.672;2023-05-10T13:48:21;2.38;;;2.17;;
58372;SDS011;44177;43.356;27.672;2023-05-10T13:50:47;4.10;;;2.35;;
58372;SDS011;44177;43.356;27.672;2023-05-10T13:53:12;4.50;;;2.55;;
58372;SDS011;44177;43.356;27.672;2023-05-10T13:59:00;5.43;;;2.58;;
58372;SDS011;44177;43.356;27.672;2023-05-10T14:01:26;6.07;;;3.38;;
58372;SDS011;44177;43.356;27.672;2023-05-10T14:03:51;3.05;;;2.20;;
58372;SDS011;44177;43.356;27.672;2023-05-10T14:06:17;2.70;;;1.92;;
58372;SDS011;44177;43.356;27.672;2023-05-10T14:08:42;4.10;;;3.13;;
58372;SDS011;44177;43.356;27.672;2023-05-10T14:11:08;8.23;;;4.32;;
58372;SDS011;44177;43.356;27.672;2023-05-10T14:13:34;6.30;;;3.53;;
58372;SDS011;44177;43.356;27.672;2023-05-10T14:15:59;6.05;;;2.42;;
58372;SDS011;44177;43.356;27.672;2023-05-10T14:18:26;3.75;;;2.25;;
58372;SDS011;44177;43.356;27.672;2023-05-10T14:20:52;5.35;;;2.40;;
58372;SDS011;44177;43.356;27.672;2023-05-10T14:23:17;4.90;;;2.47;;
58372;SDS011;44177;43.356;27.672;2023-05-10T14:25:44;6.20;;;3.10;;
58372;SDS011;44177;43.356;27.672;2023-05-10T14:28:10;4.35;;;2.20;;
58372;SDS011;44177;43.356;27.672;2023-05-10T14:30:37;3.45;;;2.75;;
58372;SDS011;44177;43.356;27.672;2023-05-10T14:33:02;9.30;;;2.45;;
58372;SDS011;44177;43.356;27.672;2023-05-10T14:35:28;10.05;;;2.80;;
58372;SDS011;44177;43.356;27.672;2023-05-10T14:37:56;5.80;;;3.08;;
58372;SDS011;44177;43.356;27.672;2023-05-10T14:40:21;3.42;;;2.10;;
58372;SDS011;44177;43.356;27.672;2023-05-10T14:42:47;4.93;;;2.47;;
58372;SDS011;44177;43.356;27.672;2023-05-10T14:45:13;4.65;;;2.67;;
58372;SDS011;44177;43.356;27.672;2023-05-10T14:47:38;3.58;;;2.28;;
58372;SDS011;44177;43.356;27.672;2023-05-10T14:50:04;5.25;;;3.10;;
58372;SDS011;44177;43.356;27.672;2023-05-10T14:55:52;4.15;;;2.60;;
58372;SDS011;44177;43.356;27.672;2023-05-10T14:58:17;3.80;;;2.17;;
58372;SDS011;44177;43.356;27.672;2023-05-10T15:00:43;9.85;;;3.63;;
58372;SDS011;44177;43.356;27.672;2023-05-10T15:03:08;5.22;;;3.40;;
58372;SDS011;44177;43.356;27.672;2023-05-10T15:05:34;8.45;;;3.50;;
58372;SDS011;44177;43.356;27.672;2023-05-10T15:08:02;5.25;;;2.40;;
58372;SDS011;44177;43.356;27.672;2023-05-10T15:10:27;7.53;;;4.13;;
58372;SDS011;44177;43.356;27.672;2023-05-10T15:12:53;11.77;;;4.30;;
58372;SDS011;44177;43.356;27.672;2023-05-10T15:15:18;5.15;;;3.72;;
58372;SDS011;44177;43.356;27.672;2023-05-10T15:17:44;3.63;;;2.35;;
58372;SDS011;44177;43.356;27.672;2023-05-10T15:20:09;4.85;;;3.95;;